createdAt,value
2023-01-19T00:01:33.230Z,-1.85
2023-01-19T00:04:06.918Z,-1.97
2023-01-19T00:06:34.886Z,-1.99
2023-01-19T00:09:03.011Z,-2.03
2023-01-19T00:11:30.991Z,-2.02
2023-01-19T00:13:58.851Z,-2.14
2023-01-19T00:16:28.195Z,-2.10
2023-01-19T00:18:56.425Z,-2.17
2023-01-19T00:21:24.672Z,-2.27
2023-01-19T00:23:52.820Z,-2.25
2023-01-19T00:26:22.355Z,-2.31
2023-01-19T00:28:50.998Z,-2.26
2023-01-19T00:31:21.585Z,-2.37
2023-01-19T00:33:52.742Z,-2.37
2023-01-19T00:36:21.048Z,-2.38
2023-01-19T00:38:49.021Z,-2.35
2023-01-19T00:41:17.181Z,-2.40
2023-01-19T00:43:44.067Z,-2.41
2023-01-19T00:46:12.161Z,-2.38
2023-01-19T00:48:40.106Z,-2.42
2023-01-19T00:51:09.354Z,-2.50
2023-01-19T00:53:37.183Z,-2.49
2023-01-19T00:56:07.137Z,-2.48
2023-01-19T00:58:35.016Z,-2.57
2023-01-19T01:01:04.810Z,-2.58
2023-01-19T01:03:33.238Z,-2.46
2023-01-19T01:06:01.590Z,-2.32
2023-01-19T01:08:30.978Z,-2.32
2023-01-19T01:10:58.879Z,-2.37
2023-01-19T01:13:28.109Z,-2.35
2023-01-19T01:15:57.717Z,-2.36
2023-01-19T01:18:26.287Z,-2.35
2023-01-19T01:20:56.215Z,-2.31
2023-01-19T01:23:24.285Z,-2.41
2023-01-19T01:25:53.768Z,-2.51
2023-01-19T01:28:21.785Z,-2.53
2023-01-19T01:30:53.828Z,-2.52
2023-01-19T01:33:39.956Z,-2.51
2023-01-19T01:36:09.873Z,-2.47
2023-01-19T01:38:38.977Z,-2.45
2023-01-19T01:41:09.778Z,-2.45
2023-01-19T01:43:47.791Z,-2.44
2023-01-19T01:46:17.411Z,-2.59
2023-01-19T01:48:53.131Z,-2.86
2023-01-19T01:51:29.392Z,-2.98
2023-01-19T01:54:14.072Z,-3.00
2023-01-19T01:57:00.687Z,-3.09
2023-01-19T01:59:39.002Z,-2.99
2023-01-19T02:02:28.734Z,-2.99
2023-01-19T02:05:04.263Z,-2.98
2023-01-19T02:07:58.980Z,-3.00
2023-01-19T02:10:44.423Z,-3.05
2023-01-19T02:13:23.560Z,-2.99
2023-01-19T02:15:53.725Z,-3.09
2023-01-19T02:18:24.268Z,-3.11
2023-01-19T02:21:04.746Z,-3.09
2023-01-19T02:23:53.483Z,-3.12
2023-01-19T02:26:25.190Z,-3.16
2023-01-19T02:28:58.399Z,-3.16
2023-01-19T02:31:30.807Z,-3.19
2023-01-19T02:34:00.835Z,-3.25
2023-01-19T02:36:36.959Z,-3.35
2023-01-19T02:39:09.661Z,-3.36
2023-01-19T02:44:35.549Z,-3.33
2023-01-19T02:47:04.175Z,-3.23
2023-01-19T02:49:34.236Z,-3.13
2023-01-19T02:52:04.245Z,-3.06
2023-01-19T02:54:49.609Z,-2.97
2023-01-19T02:57:43.610Z,-2.91
2023-01-19T03:00:28.085Z,-2.87
2023-01-19T03:03:16.351Z,-2.89
2023-01-19T03:05:57.167Z,-2.81
2023-01-19T03:08:36.966Z,-2.79
2023-01-19T03:11:09.817Z,-2.72
2023-01-19T03:13:46.787Z,-2.72
2023-01-19T03:16:22.655Z,-2.72
2023-01-19T03:18:54.957Z,-2.64
2023-01-19T03:21:29.596Z,-2.73
2023-01-19T03:24:03.530Z,-2.60
2023-01-19T03:26:40.137Z,-2.52
2023-01-19T03:29:12.176Z,-2.52
2023-01-19T03:31:45.995Z,-2.41
2023-01-19T03:34:17.976Z,-2.52
2023-01-19T03:36:54.239Z,-2.62
2023-01-19T03:39:24.472Z,-2.51
2023-01-19T03:41:59.727Z,-2.57
2023-01-19T03:44:31.342Z,-2.47
2023-01-19T03:47:00.940Z,-2.49
2023-01-19T03:49:32.359Z,-2.44
2023-01-19T03:52:00.852Z,-2.41
2023-01-19T03:54:29.281Z,-2.40
2023-01-19T03:56:58.528Z,-2.43
2023-01-19T03:59:26.529Z,-2.47
2023-01-19T04:01:54.744Z,-2.50
2023-01-19T04:04:25.663Z,-2.55
2023-01-19T04:07:21.928Z,-2.51
2023-01-19T04:09:53.139Z,-2.51
2023-01-19T04:12:22.647Z,-2.55
2023-01-19T04:14:50.780Z,-2.57
2023-01-19T04:17:19.008Z,-2.60
2023-01-19T04:19:46.903Z,-2.69
2023-01-19T04:22:17.054Z,-2.67
2023-01-19T04:25:11.088Z,-2.63
2023-01-19T04:27:40.362Z,-2.62
2023-01-19T04:30:10.018Z,-2.67
2023-01-19T04:32:38.272Z,-2.66
2023-01-19T04:35:07.045Z,-2.65
2023-01-19T04:37:34.998Z,-2.67
2023-01-19T04:40:02.973Z,-2.64
2023-01-19T04:42:30.908Z,-2.60
2023-01-19T04:45:00.172Z,-2.54
2023-01-19T04:47:28.082Z,-2.61
2023-01-19T04:49:56.058Z,-2.53
2023-01-19T04:52:24.045Z,-2.66
2023-01-19T04:54:52.098Z,-2.70
2023-01-19T04:57:19.985Z,-2.79
2023-01-19T05:00:00.731Z,-2.84
2023-01-19T05:02:30.033Z,-2.74
2023-01-19T05:04:57.941Z,-2.70
2023-01-19T05:07:25.938Z,-2.68
2023-01-19T05:09:53.945Z,-2.63
2023-01-19T05:12:22.439Z,-2.54
2023-01-19T05:14:50.578Z,-2.49
2023-01-19T05:17:18.462Z,-2.41
2023-01-19T05:19:47.851Z,-2.37
2023-01-19T05:22:16.689Z,-2.33
2023-01-19T05:24:44.673Z,-2.34
2023-01-19T05:27:13.278Z,-2.31
2023-01-19T05:29:41.203Z,-2.37
2023-01-19T05:32:09.118Z,-2.37
2023-01-19T05:34:37.130Z,-2.43
2023-01-19T05:37:06.565Z,-2.50
2023-01-19T05:39:34.695Z,-2.58
2023-01-19T05:42:02.597Z,-2.66
2023-01-19T05:44:30.511Z,-2.68
2023-01-19T05:46:58.513Z,-2.75
2023-01-19T05:49:26.481Z,-2.80
2023-01-19T05:51:54.443Z,-2.89
2023-01-19T05:54:23.933Z,-2.82
2023-01-19T05:56:51.850Z,-2.73
2023-01-19T05:59:24.119Z,-2.62
2023-01-19T06:01:52.395Z,-2.55
2023-01-19T06:04:21.249Z,-2.64
2023-01-19T06:06:49.548Z,-2.61
2023-01-19T06:09:18.256Z,-2.60
2023-01-19T06:11:48.429Z,-2.74
2023-01-19T06:14:16.384Z,-2.76
2023-01-19T06:16:44.348Z,-2.95
2023-01-19T06:19:12.552Z,-3.02
2023-01-19T06:21:40.785Z,-3.11
2023-01-19T06:24:08.968Z,-3.15
2023-01-19T06:26:37.433Z,-3.19
2023-01-19T06:29:06.709Z,-3.24
2023-01-19T06:31:34.708Z,-3.24
2023-01-19T06:34:03.002Z,-3.23
2023-01-19T06:36:31.192Z,-3.30
2023-01-19T06:38:59.203Z,-3.32
2023-01-19T06:41:27.096Z,-3.38
2023-01-19T06:43:55.047Z,-3.33
2023-01-19T06:46:24.343Z,-3.29
2023-01-19T06:48:52.238Z,-3.35
2023-01-19T06:51:21.574Z,-3.25
2023-01-19T06:53:49.510Z,-3.16
2023-01-19T06:56:17.409Z,-3.21
2023-01-19T06:58:47.610Z,-3.18
2023-01-19T07:01:16.028Z,-3.27
2023-01-19T07:03:46.882Z,-3.18
2023-01-19T07:06:14.938Z,-3.09
2023-01-19T07:08:42.859Z,-3.19
2023-01-19T07:11:24.658Z,-3.06
2023-01-19T07:13:57.625Z,-2.97
2023-01-19T07:16:25.663Z,-2.94
2023-01-19T07:18:54.973Z,-2.99
2023-01-19T07:21:23.716Z,-2.88
2023-01-19T07:23:52.716Z,-3.13
2023-01-19T07:26:22.049Z,-3.20
2023-01-19T07:28:50.465Z,-3.23
2023-01-19T07:31:19.510Z,-3.21
2023-01-19T07:33:48.491Z,-3.04
2023-01-19T07:36:17.771Z,-2.90
2023-01-19T07:38:45.662Z,-2.83
2023-01-19T07:41:13.946Z,-2.77
2023-01-19T07:43:41.864Z,-2.69
2023-01-19T07:46:09.894Z,-2.75
2023-01-19T07:48:37.792Z,-2.63
2023-01-19T07:51:10.459Z,-2.53
2023-01-19T07:53:41.925Z,-2.45
2023-01-19T07:56:10.241Z,-2.35
2023-01-19T07:58:38.344Z,-2.26
2023-01-19T08:01:08.267Z,-2.24
2023-01-19T08:03:36.211Z,-2.23
2023-01-19T08:06:05.147Z,-2.21
2023-01-19T08:08:34.706Z,-2.24
2023-01-19T08:11:03.939Z,-2.24
2023-01-19T08:13:31.847Z,-2.32
2023-01-19T08:15:59.813Z,-2.44
2023-01-19T08:18:27.722Z,-2.52
2023-01-19T08:20:55.657Z,-2.65
2023-01-19T08:23:23.671Z,-2.77
2023-01-19T08:25:51.497Z,-2.86
2023-01-19T08:28:21.033Z,-2.71
2023-01-19T08:30:54.170Z,-2.51
2023-01-19T08:33:23.389Z,-2.53
2023-01-19T08:35:54.629Z,-2.56
2023-01-19T08:38:22.832Z,-2.43
2023-01-19T08:40:50.765Z,-2.40
2023-01-19T08:43:20.605Z,-2.46
2023-01-19T08:45:53.478Z,-2.48
2023-01-19T08:48:23.562Z,-2.51
2023-01-19T08:50:53.135Z,-2.45
2023-01-19T08:53:23.539Z,-2.37
2023-01-19T08:55:57.336Z,-2.17
2023-01-19T08:58:26.658Z,-2.03
2023-01-19T09:00:54.766Z,-2.10
2023-01-19T09:03:23.605Z,-2.31
2023-01-19T09:05:51.785Z,-2.25
2023-01-19T09:08:19.683Z,-2.33
2023-01-19T09:10:50.462Z,-2.25
2023-01-19T09:13:21.606Z,-2.11
2023-01-19T09:15:50.933Z,-2.05
2023-01-19T09:18:21.072Z,-1.94
2023-01-19T09:20:50.583Z,-1.82
2023-01-19T09:23:20.256Z,-1.77
2023-01-19T09:25:48.885Z,-1.81
2023-01-19T09:28:18.588Z,-1.83
2023-01-19T09:30:46.639Z,-2.06
2023-01-19T09:33:17.935Z,-2.03
2023-01-19T09:35:47.747Z,-1.76
2023-01-19T09:38:17.585Z,-1.68
2023-01-19T09:40:49.336Z,-1.71
2023-01-19T09:43:30.972Z,-1.66
2023-01-19T09:46:00.937Z,-1.84
2023-01-19T09:48:45.822Z,-1.70
2023-01-19T09:51:18.665Z,-1.73
2023-01-19T09:53:56.994Z,-1.87
2023-01-19T09:56:26.101Z,-1.72
2023-01-19T09:58:54.171Z,-1.44
2023-01-19T10:01:37.751Z,-1.63
2023-01-19T10:04:32.179Z,-1.52
2023-01-19T10:07:19.332Z,-1.21
2023-01-19T10:10:06.017Z,-1.26
2023-01-19T10:12:53.454Z,-1.56
2023-01-19T10:15:33.888Z,-1.16
2023-01-19T10:18:13.759Z,-1.02
2023-01-19T10:20:49.104Z,-1.46
2023-01-19T10:23:36.660Z,-1.45
2023-01-19T10:26:10.913Z,-1.28
2023-01-19T10:28:40.940Z,-1.43
2023-01-19T10:31:10.153Z,-1.27
2023-01-19T10:33:39.533Z,-1.19
2023-01-19T10:36:19.219Z,-0.77
2023-01-19T10:38:48.787Z,-0.97
2023-01-19T10:41:22.294Z,-0.86
2023-01-19T10:43:51.010Z,-0.90
2023-01-19T10:46:26.925Z,-0.80
2023-01-19T10:48:56.322Z,-0.99
2023-01-19T10:51:25.914Z,-0.65
2023-01-19T10:54:00.660Z,-0.72
2023-01-19T10:56:33.653Z,-0.82
2023-01-19T10:59:04.391Z,-0.85
2023-01-19T11:01:36.843Z,-0.98
2023-01-19T11:04:23.620Z,-0.82
2023-01-19T11:06:52.863Z,-0.82
2023-01-19T11:09:23.556Z,-0.88
2023-01-19T11:11:54.342Z,-1.02
2023-01-19T11:14:25.620Z,-0.95
2023-01-19T11:16:57.246Z,-0.79
2023-01-19T11:19:29.912Z,-0.90
2023-01-19T11:22:26.954Z,-1.07
2023-01-19T11:24:59.977Z,-0.86
2023-01-19T11:27:29.483Z,-0.76
2023-01-19T11:30:09.731Z,-0.67
2023-01-19T11:32:37.959Z,-0.81
2023-01-19T11:35:34.712Z,-0.90
2023-01-19T11:38:27.191Z,-0.93
2023-01-19T11:40:57.592Z,-0.83
2023-01-19T11:43:47.480Z,-0.63
2023-01-19T11:46:17.750Z,-0.62
2023-01-19T11:48:56.672Z,-0.67
2023-01-19T11:51:31.507Z,-0.74
2023-01-19T11:54:07.895Z,-0.62
2023-01-19T11:56:36.218Z,-0.52
2023-01-19T11:59:04.963Z,-0.42
2023-01-19T12:01:37.729Z,-0.31
2023-01-19T12:04:14.303Z,-0.40
2023-01-19T12:06:47.730Z,-0.33
2023-01-19T12:09:23.148Z,-0.47
2023-01-19T12:11:58.328Z,-0.42
2023-01-19T12:14:37.364Z,-0.41
2023-01-19T12:17:13.897Z,-0.37
2023-01-19T12:19:50.518Z,-0.39
2023-01-19T12:22:21.408Z,-0.45
2023-01-19T12:24:59.513Z,-0.54
2023-01-19T12:27:40.887Z,-0.55
2023-01-19T12:30:20.094Z,-0.55
2023-01-19T12:32:48.204Z,-0.71
2023-01-19T12:35:53.721Z,-0.65
2023-01-19T12:38:39.945Z,-0.56
2023-01-19T12:41:25.413Z,-0.39
2023-01-19T12:44:22.302Z,-0.02
2023-01-19T12:46:55.071Z,-0.18
2023-01-19T12:49:28.510Z,-0.24
2023-01-19T12:52:14.350Z,-0.25
2023-01-19T12:54:50.975Z,-0.25
2023-01-19T12:57:25.100Z,-0.17
2023-01-19T12:59:58.824Z,-0.15
2023-01-19T13:02:45.342Z,-0.31
2023-01-19T13:05:19.127Z,-0.12
2023-01-19T13:08:34.815Z,-0.09
2023-01-19T13:11:20.887Z,-0.33
2023-01-19T13:14:25.380Z,0.11
2023-01-19T13:17:28.871Z,0.17
2023-01-19T13:20:36.083Z,0.27
2023-01-19T13:23:20.734Z,0.31
2023-01-19T13:25:59.920Z,0.34
2023-01-19T13:28:34.994Z,0.23
2023-01-19T13:31:05.067Z,0.38
2023-01-19T13:33:48.679Z,0.20
2023-01-19T13:36:24.008Z,0.13
2023-01-19T13:38:53.437Z,0.18
2023-01-19T13:41:25.683Z,0.17
2023-01-19T13:44:03.095Z,0.04
2023-01-19T13:46:33.540Z,0.14
2023-01-19T13:49:06.229Z,0.04
2023-01-19T13:51:35.521Z,0.12
2023-01-19T13:54:03.704Z,0.13
2023-01-19T13:56:31.680Z,0.17
2023-01-19T13:59:09.683Z,0.00
2023-01-19T14:01:39.559Z,0.03
2023-01-19T14:04:17.241Z,-0.05
2023-01-19T14:06:49.791Z,0.03
2023-01-19T14:09:20.929Z,-0.01
2023-01-19T14:12:06.704Z,-0.03
2023-01-19T14:14:34.914Z,0.03
2023-01-19T14:17:02.864Z,0.03
2023-01-19T14:19:31.024Z,0.09
2023-01-19T14:22:02.722Z,0.06
2023-01-19T14:24:33.132Z,0.06
2023-01-19T14:27:19.871Z,-0.01
2023-01-19T14:29:50.615Z,-0.13
2023-01-19T14:32:20.900Z,-0.10
2023-01-19T14:34:51.252Z,-0.15
2023-01-19T14:37:24.541Z,-0.22
2023-01-19T14:39:57.578Z,-0.20
2023-01-19T14:42:29.443Z,-0.20
2023-01-19T14:45:01.820Z,-0.20
2023-01-19T14:47:38.294Z,-0.21
2023-01-19T14:50:18.946Z,-0.12
2023-01-19T14:52:55.854Z,-0.16
2023-01-19T14:55:30.054Z,-0.18
2023-01-19T14:57:57.949Z,-0.29
2023-01-19T15:00:27.123Z,-0.39
2023-01-19T15:02:55.183Z,-0.29
2023-01-19T15:05:24.717Z,-0.33
2023-01-19T15:07:54.146Z,-0.30
2023-01-19T15:10:24.865Z,-0.22
2023-01-19T15:12:55.821Z,-0.15
2023-01-19T15:15:30.408Z,-0.08
2023-01-19T15:17:59.608Z,-0.14
2023-01-19T15:20:27.648Z,-0.30
2023-01-19T15:22:56.956Z,-0.31
2023-01-19T15:25:26.679Z,-0.31
2023-01-19T15:27:59.690Z,-0.26
2023-01-19T15:30:31.004Z,-0.27
2023-01-19T15:32:59.106Z,-0.37
2023-01-19T15:35:27.353Z,-0.41
2023-01-19T15:37:56.728Z,-0.35
2023-01-19T15:40:24.992Z,-0.35
2023-01-19T15:42:52.838Z,-0.41
2023-01-19T15:45:36.291Z,-0.36
2023-01-19T15:48:06.686Z,-0.33
2023-01-19T15:50:37.590Z,-0.47
2023-01-19T15:53:07.369Z,-0.48
2023-01-19T15:55:35.272Z,-0.46
2023-01-19T15:58:03.125Z,-0.49
2023-01-19T16:00:35.565Z,-0.55
2023-01-19T16:03:04.684Z,-0.66
2023-01-19T16:05:42.672Z,-0.63
2023-01-19T16:08:13.037Z,-0.60
2023-01-19T16:10:41.755Z,-0.77
2023-01-19T16:13:10.528Z,-0.72
2023-01-19T16:15:39.656Z,-0.74
2023-01-19T16:18:07.913Z,-0.71
2023-01-19T16:20:35.792Z,-0.74
2023-01-19T16:23:19.040Z,-0.77
2023-01-19T16:25:57.107Z,-0.88
2023-01-19T16:28:25.399Z,-0.91
2023-01-19T16:30:53.984Z,-0.94
2023-01-19T16:33:22.081Z,-0.91
2023-01-19T16:35:50.260Z,-0.90
2023-01-19T16:38:18.302Z,-0.93
2023-01-19T16:40:50.612Z,-0.92
2023-01-19T16:43:18.650Z,-0.90
2023-01-19T16:46:00.816Z,-0.88
2023-01-19T16:48:29.454Z,-0.94
2023-01-19T16:51:02.696Z,-0.85
2023-01-19T16:53:35.481Z,-0.86
2023-01-19T16:56:07.551Z,-0.90
2023-01-19T16:58:37.498Z,-0.84
2023-01-19T17:01:11.180Z,-0.90
2023-01-19T17:03:39.514Z,-0.93
2023-01-19T17:06:08.587Z,-0.90
2023-01-19T17:08:37.332Z,-0.92
2023-01-19T17:11:12.613Z,-0.95
2023-01-19T17:13:40.841Z,-0.94
2023-01-19T17:16:09.404Z,-0.92
2023-01-19T17:18:38.797Z,-1.05
2023-01-19T17:21:09.207Z,-0.98
2023-01-19T17:23:38.169Z,-0.94
2023-01-19T17:26:06.694Z,-0.95
2023-01-19T17:28:37.576Z,-0.85
2023-01-19T17:31:06.574Z,-0.75
2023-01-19T17:33:35.390Z,-0.81
2023-01-19T17:36:04.305Z,-0.86
2023-01-19T17:38:32.195Z,-0.77
2023-01-19T17:41:00.261Z,-0.68
2023-01-19T17:43:28.190Z,-0.72
2023-01-19T17:45:57.547Z,-0.56
2023-01-19T17:48:25.415Z,-0.67
2023-01-19T17:50:54.181Z,-0.61
2023-01-19T17:53:22.123Z,-0.63
2023-01-19T17:55:50.032Z,-0.62
2023-01-19T17:58:17.879Z,-0.54
2023-01-19T18:00:45.865Z,-0.51
2023-01-19T18:03:15.191Z,-0.67
2023-01-19T18:05:43.165Z,-0.58
2023-01-19T18:08:11.077Z,-0.46
2023-01-19T18:10:38.986Z,-0.35
2023-01-19T18:13:06.883Z,-0.24
2023-01-19T18:15:34.778Z,-0.21
2023-01-19T18:18:02.680Z,-0.25
2023-01-19T18:20:32.526Z,-0.26
2023-01-19T18:23:00.427Z,-0.28
2023-01-19T18:25:28.315Z,-0.34
2023-01-19T18:27:56.211Z,-0.34
2023-01-19T18:30:24.372Z,-0.33
2023-01-19T18:32:52.577Z,-0.37
2023-01-19T18:35:20.614Z,-0.37
2023-01-19T18:37:49.995Z,-0.39
2023-01-19T18:40:18.516Z,-0.42
2023-01-19T18:42:46.773Z,-0.44
2023-01-19T18:45:14.771Z,-0.56
2023-01-19T18:47:42.771Z,-0.56
2023-01-19T18:50:14.085Z,-0.54
2023-01-19T18:52:42.239Z,-0.54
2023-01-19T18:55:11.694Z,-0.64
2023-01-19T18:57:39.632Z,-0.70
2023-01-19T19:00:08.691Z,-0.72
2023-01-19T19:02:36.635Z,-0.80
2023-01-19T19:05:04.958Z,-0.83
2023-01-19T19:07:33.435Z,-0.99
2023-01-19T19:10:01.372Z,-1.06
2023-01-19T19:12:30.723Z,-1.19
2023-01-19T19:14:58.689Z,-1.32
2023-01-19T19:17:26.620Z,-1.24
2023-01-19T19:19:54.736Z,-1.21
2023-01-19T19:22:24.813Z,-1.23
2023-01-19T19:24:53.524Z,-1.26
2023-01-19T19:27:21.435Z,-1.44
2023-01-19T19:29:50.663Z,-1.59
2023-01-19T19:32:20.528Z,-1.56
2023-01-19T19:34:50.484Z,-1.49
2023-01-19T19:37:18.511Z,-1.41
2023-01-19T19:39:46.407Z,-1.28
2023-01-19T19:42:17.151Z,-1.29
2023-01-19T19:44:45.088Z,-1.25
2023-01-19T19:47:14.454Z,-1.26
2023-01-19T19:49:42.332Z,-1.39
2023-01-19T19:52:10.258Z,-1.44
2023-01-19T19:54:38.562Z,-1.36
2023-01-19T19:57:06.471Z,-1.34
2023-01-19T19:59:34.461Z,-1.36
2023-01-19T20:02:02.414Z,-1.40
2023-01-19T20:04:31.866Z,-1.36
2023-01-19T20:07:00.235Z,-1.39
2023-01-19T20:09:28.426Z,-1.39
2023-01-19T20:11:56.832Z,-1.39
2023-01-19T20:14:24.903Z,-1.53
2023-01-19T20:16:54.332Z,-1.65
2023-01-19T20:19:22.456Z,-1.58
2023-01-19T20:21:52.266Z,-1.60
2023-01-19T20:24:21.766Z,-1.48
2023-01-19T20:26:52.484Z,-1.36
2023-01-19T20:29:21.682Z,-1.43
2023-01-19T20:31:52.288Z,-1.39
2023-01-19T20:34:22.665Z,-1.32
2023-01-19T20:36:54.000Z,-1.38
2023-01-19T20:39:23.923Z,-1.25
2023-01-19T20:41:52.612Z,-1.19
2023-01-19T20:44:23.521Z,-1.17
2023-01-19T20:46:52.183Z,-1.12
2023-01-19T20:49:20.320Z,-1.10
2023-01-19T20:51:48.370Z,-1.10
2023-01-19T20:54:20.421Z,-1.01
2023-01-19T20:56:48.953Z,-1.04
2023-01-19T20:59:16.980Z,-1.00
2023-01-19T21:01:45.489Z,-0.96
2023-01-19T21:04:13.893Z,-1.03
2023-01-19T21:06:42.629Z,-1.11
2023-01-19T21:09:11.339Z,-1.18
2023-01-19T21:11:40.994Z,-1.16
2023-01-19T21:14:08.991Z,-1.15
2023-01-19T21:16:37.424Z,-1.08
2023-01-19T21:19:06.541Z,-1.19
2023-01-19T21:21:34.533Z,-1.09
2023-01-19T21:24:04.036Z,-1.00
2023-01-19T21:26:33.564Z,-0.95
2023-01-19T21:29:04.114Z,-1.04
2023-01-19T21:31:32.398Z,-0.98
2023-01-19T21:34:00.681Z,-0.86
2023-01-19T21:36:28.734Z,-0.84
2023-01-19T21:39:00.513Z,-0.83
2023-01-19T21:41:29.909Z,-0.81
2023-01-19T21:43:58.540Z,-0.81
2023-01-19T21:46:29.459Z,-0.80
2023-01-19T21:48:58.154Z,-0.81
2023-01-19T21:51:26.300Z,-0.74
2023-01-19T21:53:56.050Z,-0.73
2023-01-19T21:56:23.986Z,-0.73
2023-01-19T21:58:51.980Z,-0.72
2023-01-19T22:01:20.769Z,-0.70
2023-01-19T22:03:50.585Z,-0.70
2023-01-19T22:06:18.477Z,-0.69
2023-01-19T22:09:13.078Z,-0.75
2023-01-19T22:11:41.017Z,-0.77
2023-01-19T22:14:08.952Z,-0.75
2023-01-19T22:16:36.936Z,-0.72
2023-01-19T22:19:08.134Z,-0.66
2023-01-19T22:21:36.930Z,-0.68
2023-01-19T22:24:06.703Z,-0.76
2023-01-19T22:26:36.884Z,-0.82
2023-01-19T22:29:11.019Z,-0.73
2023-01-19T22:31:40.636Z,-0.64
2023-01-19T22:34:10.876Z,-0.67
2023-01-19T22:36:39.508Z,-0.70
2023-01-19T22:39:10.461Z,-0.73
2023-01-19T22:41:40.750Z,-0.65
2023-01-19T22:44:11.973Z,-0.62
2023-01-19T22:46:40.116Z,-0.68
2023-01-19T22:49:13.716Z,-0.67
2023-01-19T22:51:42.508Z,-0.64
2023-01-19T22:54:11.321Z,-0.63
2023-01-19T22:56:40.881Z,-0.67
2023-01-19T22:59:09.751Z,-0.72
2023-01-19T23:01:39.904Z,-0.73
2023-01-19T23:04:13.211Z,-0.68
2023-01-19T23:06:41.099Z,-0.66
2023-01-19T23:09:13.124Z,-0.62
2023-01-19T23:11:43.317Z,-0.62
2023-01-19T23:14:16.933Z,-0.62
2023-01-19T23:16:44.922Z,-0.73
2023-01-19T23:19:16.987Z,-0.82
2023-01-19T23:21:45.949Z,-0.78
2023-01-19T23:24:13.804Z,-0.75
2023-01-19T23:26:41.663Z,-0.76
2023-01-19T23:29:13.136Z,-0.73
2023-01-19T23:31:44.659Z,-0.73
2023-01-19T23:34:15.243Z,-0.70
2023-01-19T23:36:44.429Z,-0.69
2023-01-19T23:39:15.318Z,-0.68
2023-01-19T23:41:43.589Z,-0.70
2023-01-19T23:44:11.510Z,-0.63
2023-01-19T23:46:39.905Z,-0.66
2023-01-19T23:49:07.761Z,-0.67
2023-01-19T23:51:37.010Z,-0.67
2023-01-19T23:54:05.126Z,-0.62
2023-01-19T23:56:35.508Z,-0.62
2023-01-19T23:59:05.591Z,-0.70
